createdAt,value
2017-01-10T00:00:39.871Z,-0.82
2017-01-10T00:01:50.592Z,-0.78
2017-01-10T00:03:01.316Z,-0.85
2017-01-10T00:04:12.031Z,-0.84
2017-01-10T00:05:22.759Z,-0.91
2017-01-10T00:06:33.502Z,-0.91
2017-01-10T00:07:44.229Z,-0.96
2017-01-10T00:08:55.000Z,-0.84
2017-01-10T00:10:05.739Z,-0.94
2017-01-10T00:11:16.460Z,-0.89
2017-01-10T00:12:27.202Z,-0.94
2017-01-10T00:13:37.932Z,-0.96
2017-01-10T00:14:48.680Z,-0.97
2017-01-10T00:15:59.403Z,-1.01
2017-01-10T00:17:10.114Z,-1.01
2017-01-10T00:18:20.844Z,-0.96
2017-01-10T00:19:31.563Z,-1
2017-01-10T00:20:42.287Z,-1.01
2017-01-10T00:21:53.055Z,-1
2017-01-10T00:23:03.764Z,-1.01
2017-01-10T00:24:14.497Z,-0.93
2017-01-10T00:25:25.231Z,-1.04
2017-01-10T00:26:35.963Z,-1.06
2017-01-10T00:27:46.709Z,-1.03
2017-01-10T00:28:57.421Z,-1.09
2017-01-10T00:30:08.222Z,-1.17
2017-01-10T00:31:18.960Z,-1.07
2017-01-10T00:32:29.664Z,-1.09
2017-01-10T00:33:40.378Z,-1.18
2017-01-10T00:34:51.102Z,-1.22
2017-01-10T00:36:01.798Z,-1.14
2017-01-10T00:37:12.545Z,-1.21
2017-01-10T00:38:23.262Z,-1.19
2017-01-10T00:39:34.017Z,-1.17
2017-01-10T00:40:44.753Z,-1.19
2017-01-10T00:41:55.503Z,-1.21
2017-01-10T00:43:06.205Z,-1.17
2017-01-10T00:44:16.930Z,-1.3
2017-01-10T00:45:27.644Z,-1.29
2017-01-10T00:46:38.361Z,-1.25
2017-01-10T00:47:49.061Z,-1.21
2017-01-10T00:48:59.778Z,-1.25
2017-01-10T00:50:10.532Z,-1.38
2017-01-10T00:51:21.250Z,-1.29
2017-01-10T00:52:31.988Z,-1.33
2017-01-10T00:53:42.691Z,-1.25
2017-01-10T00:54:53.404Z,-1.21
2017-01-10T00:56:04.139Z,-1.24
2017-01-10T00:57:14.850Z,-1.3
2017-01-10T00:58:25.595Z,-1.25
2017-01-10T00:59:36.316Z,-1.22
2017-01-10T01:00:47.034Z,-1.24
2017-01-10T01:01:57.758Z,-1.14
2017-01-10T01:03:08.479Z,-1.21
2017-01-10T01:04:19.200Z,-1.22
2017-01-10T01:05:29.918Z,-1.19
2017-01-10T01:06:40.675Z,-1.19
2017-01-10T01:07:51.395Z,-1.27
2017-01-10T01:09:02.092Z,-1.22
2017-01-10T01:10:12.815Z,-1.11
2017-01-10T01:11:23.548Z,-1.11
2017-01-10T01:12:34.244Z,-1.12
2017-01-10T01:13:44.952Z,-1.07
2017-01-10T01:14:55.668Z,-1.06
2017-01-10T01:16:06.381Z,-1.01
2017-01-10T01:17:17.128Z,-1.01
2017-01-10T01:18:27.861Z,-1.04
2017-01-10T01:19:38.595Z,-1
2017-01-10T01:20:49.323Z,-0.94
2017-01-10T01:22:00.047Z,-1
2017-01-10T01:23:10.758Z,-1.01
2017-01-10T01:24:21.462Z,-1.03
2017-01-10T01:25:32.182Z,-1
2017-01-10T01:26:42.895Z,-0.94
2017-01-10T01:27:53.601Z,-0.96
2017-01-10T01:29:04.316Z,-0.96
2017-01-10T01:30:15.058Z,-0.89
2017-01-10T01:31:25.795Z,-0.96
2017-01-10T01:32:36.526Z,-0.87
2017-01-10T01:33:47.246Z,-0.91
2017-01-10T01:34:57.977Z,-0.94
2017-01-10T01:36:08.663Z,-0.93
2017-01-10T01:37:19.363Z,-0.89
2017-01-10T01:38:30.106Z,-0.87
2017-01-10T01:39:40.859Z,-0.89
2017-01-10T01:40:51.601Z,-0.77
2017-01-10T01:42:02.301Z,-0.81
2017-01-10T01:43:13.014Z,-0.8
2017-01-10T01:44:23.723Z,-0.81
2017-01-10T01:45:34.460Z,-0.93
2017-01-10T01:46:45.163Z,-0.81
2017-01-10T01:47:55.901Z,-0.84
2017-01-10T01:49:06.647Z,-0.78
2017-01-10T01:50:17.372Z,-0.82
2017-01-10T01:51:28.097Z,-0.89
2017-01-10T01:52:38.831Z,-0.89
2017-01-10T01:53:49.539Z,-0.82
2017-01-10T01:55:00.274Z,-0.8
2017-01-10T01:56:11.003Z,-0.82
2017-01-10T01:57:21.698Z,-0.84
2017-01-10T01:58:32.400Z,-0.84
2017-01-10T01:59:43.120Z,-0.81
2017-01-10T02:00:53.836Z,-0.84
2017-01-10T02:02:04.553Z,-0.81
2017-01-10T02:03:15.296Z,-0.85
2017-01-10T02:04:26.055Z,-0.89
2017-01-10T02:05:36.791Z,-0.87
2017-01-10T02:06:47.512Z,-0.84
2017-01-10T02:07:58.243Z,-0.82
2017-01-10T02:09:09.001Z,-0.89
2017-01-10T02:10:19.750Z,-0.89
2017-01-10T02:11:30.497Z,-0.82
2017-01-10T02:12:41.596Z,-0.82
2017-01-10T02:13:52.321Z,-0.89
2017-01-10T02:15:03.043Z,-0.81
2017-01-10T02:16:13.776Z,-0.8
2017-01-10T02:17:24.486Z,-0.72
2017-01-10T02:18:35.254Z,-0.85
2017-01-10T02:19:45.990Z,-0.85
2017-01-10T02:20:56.741Z,-0.87
2017-01-10T02:22:07.443Z,-0.87
2017-01-10T02:23:18.182Z,-0.82
2017-01-10T02:24:28.889Z,-0.81
2017-01-10T02:25:39.681Z,-0.84
2017-01-10T02:26:50.398Z,-0.87
2017-01-10T02:28:01.169Z,-0.82
2017-01-10T02:29:11.883Z,-0.87
2017-01-10T02:30:22.612Z,-0.94
2017-01-10T02:31:33.326Z,-0.91
2017-01-10T02:32:44.046Z,-0.89
2017-01-10T02:33:54.767Z,-1
2017-01-10T02:35:05.471Z,-1.04
2017-01-10T02:36:16.187Z,-1.04
2017-01-10T02:37:26.906Z,-1.07
2017-01-10T02:38:37.602Z,-1.22
2017-01-10T02:39:48.351Z,-1.18
2017-01-10T02:40:59.085Z,-1.14
2017-01-10T02:42:09.815Z,-1.21
2017-01-10T02:43:20.519Z,-1.15
2017-01-10T02:44:31.207Z,-1.25
2017-01-10T02:45:41.940Z,-1.21
2017-01-10T02:46:52.678Z,-1.27
2017-01-10T02:48:03.432Z,-1.33
2017-01-10T02:49:14.180Z,-1.39
2017-01-10T02:50:24.922Z,-1.42
2017-01-10T02:51:35.615Z,-1.43
2017-01-10T02:52:46.316Z,-1.45
2017-01-10T02:53:57.057Z,-1.48
2017-01-10T02:55:07.759Z,-1.48
2017-01-10T02:56:18.472Z,-1.43
2017-01-10T02:57:29.195Z,-1.5
2017-01-10T02:58:39.895Z,-1.53
2017-01-10T02:59:50.631Z,-1.58
2017-01-10T03:01:01.333Z,-1.54
2017-01-10T03:02:12.432Z,-1.64
2017-01-10T03:03:23.153Z,-1.6
2017-01-10T03:04:33.844Z,-1.66
2017-01-10T03:05:44.587Z,-1.61
2017-01-10T03:06:55.288Z,-1.78
2017-01-10T03:08:06.012Z,-1.68
2017-01-10T03:09:16.747Z,-1.69
2017-01-10T03:10:27.495Z,-1.75
2017-01-10T03:11:38.592Z,-1.81
2017-01-10T03:12:49.296Z,-1.81
2017-01-10T03:14:00.034Z,-1.78
2017-01-10T03:15:10.759Z,-1.87
2017-01-10T03:16:21.476Z,-1.87
2017-01-10T03:17:32.172Z,-1.84
2017-01-10T03:18:42.890Z,-1.92
2017-01-10T03:19:53.640Z,-1.99
2017-01-10T03:21:04.382Z,-1.99
2017-01-10T03:22:15.091Z,-1.9
2017-01-10T03:23:25.811Z,-2
2017-01-10T03:24:36.550Z,-2.02
2017-01-10T03:25:47.294Z,-2.05
2017-01-10T03:26:58.040Z,-2
2017-01-10T03:28:08.762Z,-2
2017-01-10T03:29:19.479Z,-1.94
2017-01-10T03:30:30.203Z,-2.04
2017-01-10T03:31:40.906Z,-1.99
2017-01-10T03:32:52.004Z,-2.07
2017-01-10T03:34:02.738Z,-2.02
2017-01-10T03:35:13.489Z,-2.1
2017-01-10T03:36:24.205Z,-2.11
2017-01-10T03:37:34.930Z,-2.1
2017-01-10T03:38:45.655Z,-2.13
2017-01-10T03:39:56.372Z,-2.14
2017-01-10T03:41:07.076Z,-2.11
2017-01-10T03:42:17.814Z,-2.11
2017-01-10T03:43:28.560Z,-2.11
2017-01-10T03:44:39.278Z,-2.15
2017-01-10T03:45:50.009Z,-2.18
2017-01-10T03:47:00.719Z,-2.15
2017-01-10T03:48:11.433Z,-2.17
2017-01-10T03:49:22.164Z,-2.08
2017-01-10T03:50:32.865Z,-2.2
2017-01-10T03:51:43.578Z,-2.2
2017-01-10T03:52:54.300Z,-2.25
2017-01-10T03:54:05.021Z,-2.13
2017-01-10T03:55:15.724Z,-2.22
2017-01-10T03:56:26.441Z,-2.2
2017-01-10T03:57:37.150Z,-2.18
2017-01-10T03:58:47.908Z,-2.2
2017-01-10T03:59:58.674Z,-2.2
2017-01-10T04:01:09.378Z,-2.23
2017-01-10T04:02:20.120Z,-2.22
2017-01-10T04:03:30.849Z,-2.2
2017-01-10T04:04:41.597Z,-2.22
2017-01-10T04:05:52.292Z,-2.22
2017-01-10T04:07:03.426Z,-2.18
2017-01-10T04:08:14.135Z,-2.29
2017-01-10T04:09:24.832Z,-2.26
2017-01-10T04:10:35.576Z,-2.23
2017-01-10T04:11:46.317Z,-2.2
2017-01-10T04:12:57.016Z,-2.26
2017-01-10T04:14:07.751Z,-2.23
2017-01-10T04:15:18.455Z,-2.25
2017-01-10T04:16:29.176Z,-2.23
2017-01-10T04:17:39.863Z,-2.34
2017-01-10T04:18:50.590Z,-2.34
2017-01-10T04:20:01.311Z,-2.4
2017-01-10T04:21:12.055Z,-2.33
2017-01-10T04:22:22.773Z,-2.34
2017-01-10T04:23:33.496Z,-2.36
2017-01-10T04:24:44.256Z,-2.36
2017-01-10T04:25:55.022Z,-2.37
2017-01-10T04:27:06.116Z,-2.36
2017-01-10T04:28:16.830Z,-2.42
2017-01-10T04:29:27.560Z,-2.37
2017-01-10T04:30:38.282Z,-2.4
2017-01-10T04:31:49.002Z,-2.4
2017-01-10T04:32:59.765Z,-2.48
2017-01-10T04:34:10.497Z,-2.39
2017-01-10T04:35:21.231Z,-2.45
2017-01-10T04:36:31.924Z,-2.54
2017-01-10T04:37:43.034Z,-2.42
2017-01-10T04:38:53.741Z,-2.48
2017-01-10T04:40:04.462Z,-2.5
2017-01-10T04:41:15.186Z,-2.52
2017-01-10T04:42:25.929Z,-2.54
2017-01-10T04:43:36.658Z,-2.58
2017-01-10T04:44:47.357Z,-2.51
2017-01-10T04:45:58.081Z,-2.63
2017-01-10T04:47:08.821Z,-2.62
2017-01-10T04:48:19.517Z,-2.58
2017-01-10T04:49:30.209Z,-2.58
2017-01-10T04:50:40.930Z,-2.63
2017-01-10T04:51:52.048Z,-2.63
2017-01-10T04:53:02.772Z,-2.65
2017-01-10T04:54:13.498Z,-2.61
2017-01-10T04:55:24.219Z,-2.58
2017-01-10T04:56:34.908Z,-2.55
2017-01-10T04:57:45.632Z,-2.68
2017-01-10T04:58:56.364Z,-2.58
2017-01-10T05:00:07.474Z,-2.66
2017-01-10T05:01:18.203Z,-2.65
2017-01-10T05:02:28.941Z,-2.72
2017-01-10T05:03:39.662Z,-2.7
2017-01-10T05:04:50.367Z,-2.63
2017-01-10T05:06:01.079Z,-2.61
2017-01-10T05:07:11.800Z,-2.68
2017-01-10T05:08:22.522Z,-2.65
2017-01-10T05:09:33.238Z,-2.68
2017-01-10T05:10:43.960Z,-2.65
2017-01-10T05:11:54.689Z,-2.63
2017-01-10T05:13:05.414Z,-2.69
2017-01-10T05:14:16.110Z,-2.62
2017-01-10T05:15:26.826Z,-2.69
2017-01-10T05:16:37.527Z,-2.66
2017-01-10T05:17:48.245Z,-2.68
2017-01-10T05:18:58.995Z,-2.69
2017-01-10T05:20:09.728Z,-2.72
2017-01-10T05:21:20.432Z,-2.75
2017-01-10T05:22:31.152Z,-2.69
2017-01-10T05:23:41.867Z,-2.66
2017-01-10T05:24:52.576Z,-2.7
2017-01-10T05:26:03.295Z,-2.69
2017-01-10T05:27:14.005Z,-2.65
2017-01-10T05:28:24.726Z,-2.76
2017-01-10T05:29:35.455Z,-2.69
2017-01-10T05:30:46.154Z,-2.8
2017-01-10T05:31:56.871Z,-2.76
2017-01-10T05:33:07.589Z,-2.8
2017-01-10T05:34:18.306Z,-2.78
2017-01-10T05:35:29.018Z,-2.75
2017-01-10T05:36:39.751Z,-2.78
2017-01-10T05:37:50.456Z,-2.78
2017-01-10T05:39:01.154Z,-2.78
2017-01-10T05:40:11.890Z,-2.83
2017-01-10T05:41:22.638Z,-2.8
2017-01-10T05:42:33.357Z,-2.84
2017-01-10T05:43:44.082Z,-2.78
2017-01-10T05:44:54.796Z,-2.8
2017-01-10T05:46:05.500Z,-2.8
2017-01-10T05:47:16.200Z,-2.76
2017-01-10T05:48:26.937Z,-2.87
2017-01-10T05:49:37.658Z,-2.75
2017-01-10T05:50:48.376Z,-2.83
2017-01-10T05:51:59.097Z,-2.83
2017-01-10T05:53:09.845Z,-2.89
2017-01-10T05:54:20.541Z,-2.83
2017-01-10T05:55:31.270Z,-2.91
2017-01-10T05:56:42.033Z,-2.84
2017-01-10T05:57:52.756Z,-2.86
2017-01-10T05:59:03.477Z,-2.81
2017-01-10T06:00:14.194Z,-2.9
2017-01-10T06:01:24.927Z,-2.83
2017-01-10T06:02:35.640Z,-2.83
2017-01-10T06:03:46.335Z,-2.83
2017-01-10T06:04:57.039Z,-2.81
2017-01-10T06:06:07.760Z,-2.93
2017-01-10T06:07:18.498Z,-2.84
2017-01-10T06:08:29.233Z,-2.89
2017-01-10T06:09:39.949Z,-2.9
2017-01-10T06:10:50.690Z,-2.89
2017-01-10T06:12:01.419Z,-2.99
2017-01-10T06:13:12.132Z,-2.9
2017-01-10T06:14:22.878Z,-2.86
2017-01-10T06:15:33.603Z,-2.91
2017-01-10T06:16:44.321Z,-2.91
2017-01-10T06:17:55.073Z,-2.96
2017-01-10T06:19:05.782Z,-2.96
2017-01-10T06:20:16.534Z,-2.9
2017-01-10T06:21:27.247Z,-2.91
2017-01-10T06:22:37.969Z,-2.89
2017-01-10T06:23:48.718Z,-2.87
2017-01-10T06:24:59.424Z,-2.87
2017-01-10T06:26:10.185Z,-2.98
2017-01-10T06:27:20.938Z,-2.99
2017-01-10T06:28:31.656Z,-3.02
2017-01-10T06:29:42.379Z,-2.98
2017-01-10T06:30:53.116Z,-3.04
2017-01-10T06:32:03.825Z,-2.99
2017-01-10T06:33:14.545Z,-2.99
2017-01-10T06:34:25.265Z,-3.08
2017-01-10T06:35:35.979Z,-3.05
2017-01-10T06:36:46.707Z,-3.07
2017-01-10T06:37:57.830Z,-3.07
2017-01-10T06:39:08.591Z,-3.09
2017-01-10T06:40:19.312Z,-3.02
2017-01-10T06:41:30.017Z,-3.09
2017-01-10T06:42:40.705Z,-3.05
2017-01-10T06:43:51.425Z,-3.12
2017-01-10T06:45:02.118Z,-3.09
2017-01-10T06:46:12.843Z,-3.09
2017-01-10T06:47:23.547Z,-3.09
2017-01-10T06:48:34.282Z,-3.07
2017-01-10T06:49:45.037Z,-3.14
2017-01-10T06:50:55.747Z,-3.12
2017-01-10T06:52:06.522Z,-3.14
2017-01-10T06:53:17.243Z,-3.15
2017-01-10T06:54:27.969Z,-3.11
2017-01-10T06:55:38.682Z,-3.12
2017-01-10T06:56:49.407Z,-3.12
2017-01-10T06:58:00.128Z,-3.27
2017-01-10T06:59:10.881Z,-3.26
2017-01-10T07:00:21.623Z,-3.25
2017-01-10T07:01:32.365Z,-3.26
2017-01-10T07:02:43.086Z,-3.26
2017-01-10T07:03:53.791Z,-3.29
2017-01-10T07:05:04.484Z,-3.26
2017-01-10T07:06:15.206Z,-3.2
2017-01-10T07:07:25.900Z,-3.09
2017-01-10T07:08:36.614Z,-3.25
2017-01-10T07:09:47.720Z,-3.22
2017-01-10T07:10:58.467Z,-3.29
2017-01-10T07:12:09.163Z,-3.23
2017-01-10T07:13:19.876Z,-3.23
2017-01-10T07:14:30.629Z,-3.17
2017-01-10T07:15:41.347Z,-3.27
2017-01-10T07:16:52.043Z,-3.22
2017-01-10T07:18:02.756Z,-3.2
2017-01-10T07:19:13.481Z,-3.19
2017-01-10T07:20:24.188Z,-3.22
2017-01-10T07:21:34.877Z,-3.23
2017-01-10T07:22:45.590Z,-3.26
2017-01-10T07:23:56.290Z,-3.26
2017-01-10T07:25:07.019Z,-3.19
2017-01-10T07:26:17.765Z,-3.22
2017-01-10T07:27:28.482Z,-3.25
2017-01-10T07:28:39.220Z,-3.25
2017-01-10T07:29:49.970Z,-3.22
2017-01-10T07:31:00.697Z,-3.23
2017-01-10T07:32:11.396Z,-3.26
2017-01-10T07:33:22.142Z,-3.12
2017-01-10T07:34:32.859Z,-3.23
2017-01-10T07:35:43.546Z,-3.2
2017-01-10T07:36:54.295Z,-3.29
2017-01-10T07:38:04.999Z,-3.26
2017-01-10T07:39:15.741Z,-3.14
2017-01-10T07:40:26.443Z,-3.22
2017-01-10T07:41:37.164Z,-3.12
2017-01-10T07:42:47.904Z,-3.17
2017-01-10T07:43:58.630Z,-3.15
2017-01-10T07:45:09.396Z,-3.05
2017-01-10T07:46:20.088Z,-3.14
2017-01-10T07:47:30.813Z,-3.08
2017-01-10T07:48:41.530Z,-2.98
2017-01-10T07:49:52.273Z,-3.02
2017-01-10T07:51:03.004Z,-3.01
2017-01-10T07:52:13.743Z,-3.04
2017-01-10T07:53:24.461Z,-3.07
2017-01-10T07:54:35.190Z,-3.04
2017-01-10T07:55:45.911Z,-3.05
2017-01-10T07:56:56.606Z,-3.04
2017-01-10T07:58:07.306Z,-2.98
2017-01-10T07:59:18.028Z,-2.91
2017-01-10T08:00:28.762Z,-2.94
2017-01-10T08:01:39.895Z,-2.9
2017-01-10T08:02:50.629Z,-2.89
2017-01-10T08:04:01.360Z,-2.89
2017-01-10T08:05:12.082Z,-2.81
2017-01-10T08:06:22.821Z,-2.9
2017-01-10T08:07:33.538Z,-2.86
2017-01-10T08:08:44.291Z,-2.8
2017-01-10T08:09:55.016Z,-2.8
2017-01-10T08:11:05.737Z,-2.8
2017-01-10T08:12:16.454Z,-2.78
2017-01-10T08:13:27.179Z,-2.73
2017-01-10T08:14:37.891Z,-2.72
2017-01-10T08:15:48.611Z,-2.73
2017-01-10T08:16:59.329Z,-2.7
2017-01-10T08:18:10.079Z,-2.68
2017-01-10T08:19:20.822Z,-2.69
2017-01-10T08:20:31.545Z,-2.66
2017-01-10T08:21:42.281Z,-2.62
2017-01-10T08:22:52.984Z,-2.69
2017-01-10T08:24:03.730Z,-2.62
2017-01-10T08:25:14.455Z,-2.66
2017-01-10T08:26:25.179Z,-2.61
2017-01-10T08:27:35.901Z,-2.65
2017-01-10T08:28:46.589Z,-2.48
2017-01-10T08:29:57.296Z,-2.55
2017-01-10T08:31:08.043Z,-2.42
2017-01-10T08:32:18.751Z,-2.47
2017-01-10T08:33:29.526Z,-2.45
2017-01-10T08:34:40.250Z,-2.48
2017-01-10T08:35:50.968Z,-2.51
2017-01-10T08:37:01.695Z,-2.51
2017-01-10T08:38:12.414Z,-2.42
2017-01-10T08:39:23.109Z,-2.45
2017-01-10T08:40:33.834Z,-2.37
2017-01-10T08:41:44.580Z,-2.39
2017-01-10T08:42:55.303Z,-2.33
2017-01-10T08:44:06.017Z,-2.33
2017-01-10T08:45:16.735Z,-2.34
2017-01-10T08:46:27.455Z,-2.39
2017-01-10T08:47:38.155Z,-2.25
2017-01-10T08:48:48.880Z,-2.26
2017-01-10T08:49:59.601Z,-2.25
2017-01-10T08:51:10.324Z,-2.32
2017-01-10T08:52:21.057Z,-2.22
2017-01-10T08:53:31.779Z,-2.2
2017-01-10T08:54:42.506Z,-2.17
2017-01-10T08:55:53.252Z,-2.14
2017-01-10T08:57:03.968Z,-2.08
2017-01-10T08:58:14.690Z,-2.17
2017-01-10T08:59:25.436Z,-2.05
2017-01-10T09:00:36.143Z,-2.05
2017-01-10T09:01:46.875Z,-2.07
2017-01-10T09:02:57.598Z,-2.05
2017-01-10T09:04:08.345Z,-1.92
2017-01-10T09:05:19.070Z,-1.87
2017-01-10T09:06:29.808Z,-1.81
2017-01-10T09:07:40.532Z,-1.82
2017-01-10T09:08:51.232Z,-1.71
2017-01-10T09:10:01.928Z,-1.66
2017-01-10T09:11:12.652Z,-1.66
2017-01-10T09:12:23.392Z,-1.63
2017-01-10T09:13:34.110Z,-1.48
2017-01-10T09:14:44.819Z,-1.45
2017-01-10T09:15:55.576Z,-1.51
2017-01-10T09:17:06.323Z,-1.43
2017-01-10T09:18:17.047Z,-1.48
2017-01-10T09:19:27.795Z,-1.38
2017-01-10T09:20:38.524Z,-1.35
2017-01-10T09:21:49.268Z,-1.32
2017-01-10T09:22:59.988Z,-1.27
2017-01-10T09:24:10.724Z,-1.32
2017-01-10T09:25:21.456Z,-1.29
2017-01-10T09:26:32.180Z,-1.3
2017-01-10T09:27:42.937Z,-1.15
2017-01-10T09:28:53.633Z,-1.22
2017-01-10T09:30:04.354Z,-1.25
2017-01-10T09:31:15.079Z,-1.25
2017-01-10T09:32:25.775Z,-1.18
2017-01-10T09:33:36.501Z,-1.17
2017-01-10T09:34:47.245Z,-1.19
2017-01-10T09:35:57.987Z,-1.17
2017-01-10T09:37:09.087Z,-1.24
2017-01-10T09:38:19.784Z,-1.17
2017-01-10T09:39:30.500Z,-1.12
2017-01-10T09:40:41.197Z,-1.11
2017-01-10T09:41:51.914Z,-1.14
2017-01-10T09:43:02.643Z,-1.12
2017-01-10T09:44:13.385Z,-1.29
2017-01-10T09:45:24.087Z,-1.18
2017-01-10T09:46:34.826Z,-1.14
2017-01-10T09:47:45.570Z,-1.21
2017-01-10T09:48:56.293Z,-1.25
2017-01-10T09:50:06.996Z,-1.21
2017-01-10T09:51:17.695Z,-1.17
2017-01-10T09:52:28.416Z,-1.18
2017-01-10T09:53:39.126Z,-1.21
2017-01-10T09:54:49.827Z,-1.15
2017-01-10T09:56:00.552Z,-1.14
2017-01-10T09:57:11.264Z,-1.22
2017-01-10T09:58:22.010Z,-1.24
2017-01-10T09:59:32.756Z,-1.17
2017-01-10T10:00:43.485Z,-1.24
2017-01-10T10:01:54.180Z,-1.15
2017-01-10T10:03:04.900Z,-1.12
2017-01-10T10:04:15.639Z,-1.14
2017-01-10T10:05:26.356Z,-1.11
2017-01-10T10:06:37.065Z,-1.04
2017-01-10T10:07:47.785Z,-1.11
2017-01-10T10:08:58.505Z,-1.11
2017-01-10T10:10:09.222Z,-1.07
2017-01-10T10:11:19.944Z,-1.07
2017-01-10T10:12:30.666Z,-1.09
2017-01-10T10:13:41.379Z,-1.07
2017-01-10T10:14:52.110Z,-1.09
2017-01-10T10:16:02.832Z,-1
2017-01-10T10:17:13.548Z,-1.03
2017-01-10T10:18:24.261Z,-1.03
2017-01-10T10:19:34.982Z,-1
2017-01-10T10:20:45.708Z,-1.03
2017-01-10T10:21:56.435Z,-0.99
2017-01-10T10:23:07.169Z,-1.06
2017-01-10T10:24:17.901Z,-0.97
2017-01-10T10:25:28.639Z,-0.93
2017-01-10T10:26:39.360Z,-1.04
2017-01-10T10:27:50.059Z,-1.01
2017-01-10T10:29:00.802Z,-1.03
2017-01-10T10:30:11.518Z,-1
2017-01-10T10:31:22.272Z,-1.12
2017-01-10T10:32:32.969Z,-1
2017-01-10T10:33:44.091Z,-0.94
2017-01-10T10:34:54.816Z,-1
2017-01-10T10:36:05.555Z,-1.12
2017-01-10T10:37:16.293Z,-0.99
2017-01-10T10:38:27.020Z,-0.97
2017-01-10T10:39:37.741Z,-0.93
2017-01-10T10:40:48.433Z,-0.96
2017-01-10T10:41:59.125Z,-0.84
2017-01-10T10:43:09.856Z,-0.89
2017-01-10T10:44:20.595Z,-0.85
2017-01-10T10:45:31.315Z,-0.8
2017-01-10T10:46:42.040Z,-0.89
2017-01-10T10:47:52.761Z,-0.82
2017-01-10T10:49:03.449Z,-0.8
2017-01-10T10:50:14.177Z,-0.7
2017-01-10T10:51:24.902Z,-0.63
2017-01-10T10:52:35.637Z,-0.54
2017-01-10T10:53:46.382Z,-0.48
2017-01-10T10:54:57.106Z,-0.42
2017-01-10T10:56:07.827Z,-0.48
2017-01-10T10:57:18.554Z,-0.44
2017-01-10T10:58:29.276Z,-0.36
2017-01-10T10:59:40.014Z,-0.21
2017-01-10T11:00:50.734Z,-0.15
2017-01-10T11:02:01.455Z,-0.06
2017-01-10T11:03:12.180Z,-0.07
2017-01-10T11:04:22.921Z,0.05
2017-01-10T11:05:33.639Z,0.02
2017-01-10T11:06:44.373Z,0.05
2017-01-10T11:07:55.091Z,0.06
2017-01-10T11:09:05.813Z,0.02
2017-01-10T11:10:16.554Z,0.08
2017-01-10T11:11:27.275Z,0
2017-01-10T11:12:37.976Z,0.09
2017-01-10T11:13:48.719Z,0.05
2017-01-10T11:14:59.443Z,0.05
2017-01-10T11:16:10.207Z,-0.1
2017-01-10T11:17:20.908Z,0
2017-01-10T11:18:31.629Z,0.06
2017-01-10T11:19:42.362Z,-0.02
2017-01-10T11:20:53.093Z,-0.09
2017-01-10T11:22:03.829Z,0.02
2017-01-10T11:23:14.562Z,0.01
2017-01-10T11:24:25.325Z,0.02
2017-01-10T11:25:36.072Z,-0.05
2017-01-10T11:26:46.813Z,-0.05
2017-01-10T11:27:57.545Z,-0.02
2017-01-10T11:29:08.267Z,0.08
2017-01-10T11:30:19.005Z,0.02
2017-01-10T11:31:29.811Z,0.05
2017-01-10T11:32:40.543Z,0.05
2017-01-10T11:33:51.248Z,0.08
2017-01-10T11:35:01.968Z,0.05
2017-01-10T11:36:12.710Z,0.12
2017-01-10T11:37:23.452Z,0.08
2017-01-10T11:38:34.179Z,0.06
2017-01-10T11:39:44.907Z,0.02
2017-01-10T11:40:55.652Z,0.02
2017-01-10T11:42:06.388Z,0.02
2017-01-10T11:43:17.123Z,0.06
2017-01-10T11:44:27.865Z,0.15
2017-01-10T11:45:38.561Z,0.18
2017-01-10T11:46:49.325Z,0.12
2017-01-10T11:48:00.054Z,0.18
2017-01-10T11:49:10.772Z,0.19
2017-01-10T11:50:21.474Z,0.19
2017-01-10T11:51:32.192Z,0.13
2017-01-10T11:52:42.905Z,0.18
2017-01-10T11:53:53.647Z,0.13
2017-01-10T11:55:04.370Z,0.3
2017-01-10T11:56:15.076Z,0.19
2017-01-10T11:57:25.789Z,0.33
2017-01-10T11:58:36.531Z,0.23
2017-01-10T11:59:47.656Z,0.27
2017-01-10T12:00:58.381Z,0.19
2017-01-10T12:02:09.081Z,0.24
2017-01-10T12:03:19.827Z,0.31
2017-01-10T12:04:30.549Z,0.31
2017-01-10T12:05:41.283Z,0.31
2017-01-10T12:06:52.028Z,0.24
2017-01-10T12:08:02.775Z,0.23
2017-01-10T12:09:13.505Z,0.31
2017-01-10T12:10:24.220Z,0.31
2017-01-10T12:11:34.916Z,0.33
2017-01-10T12:12:45.637Z,0.33
2017-01-10T12:13:56.365Z,0.33
2017-01-10T12:15:07.108Z,0.34
2017-01-10T12:16:17.804Z,0.4
2017-01-10T12:17:28.546Z,0.31
2017-01-10T12:18:39.301Z,0.33
2017-01-10T12:19:50.019Z,0.36
2017-01-10T12:21:00.731Z,0.31
2017-01-10T12:22:11.491Z,0.3
2017-01-10T12:23:22.209Z,0.39
2017-01-10T12:24:32.930Z,0.39
2017-01-10T12:25:43.667Z,0.37
2017-01-10T12:26:54.385Z,0.37
2017-01-10T12:28:05.107Z,0.34
2017-01-10T12:29:15.815Z,0.42
2017-01-10T12:30:26.578Z,0.37
2017-01-10T12:31:37.295Z,0.45
2017-01-10T12:32:48.028Z,0.42
2017-01-10T12:33:58.761Z,0.42
2017-01-10T12:35:09.493Z,0.36
2017-01-10T12:36:20.228Z,0.44
2017-01-10T12:37:30.937Z,0.39
2017-01-10T12:38:41.677Z,0.47
2017-01-10T12:39:52.403Z,0.48
2017-01-10T12:41:03.127Z,0.4
2017-01-10T12:42:13.859Z,0.44
2017-01-10T12:43:24.580Z,0.42
2017-01-10T12:44:35.301Z,0.55
2017-01-10T12:45:45.997Z,0.36
2017-01-10T12:46:56.730Z,0.47
2017-01-10T12:48:07.456Z,0.48
2017-01-10T12:49:18.570Z,0.4
2017-01-10T12:50:29.293Z,0.59
2017-01-10T12:51:40.010Z,0.51
2017-01-10T12:52:50.731Z,0.42
2017-01-10T12:54:01.469Z,0.49
2017-01-10T12:55:12.169Z,0.45
2017-01-10T12:56:22.886Z,0.42
2017-01-10T12:57:33.621Z,0.47
2017-01-10T12:58:44.359Z,0.49
2017-01-10T12:59:55.100Z,0.47
2017-01-10T13:01:05.830Z,0.49
2017-01-10T13:02:16.567Z,0.51
2017-01-10T13:03:27.299Z,0.48
2017-01-10T13:04:38.042Z,0.48
2017-01-10T13:05:48.784Z,0.48
2017-01-10T13:06:59.501Z,0.49
2017-01-10T13:08:10.273Z,0.55
2017-01-10T13:09:21.020Z,0.48
2017-01-10T13:10:31.744Z,0.49
2017-01-10T13:11:42.493Z,0.36
2017-01-10T13:12:53.233Z,0.42
2017-01-10T13:14:03.961Z,0.47
2017-01-10T13:15:14.674Z,0.42
2017-01-10T13:16:25.378Z,0.52
2017-01-10T13:17:36.077Z,0.39
2017-01-10T13:18:46.774Z,0.44
2017-01-10T13:19:57.495Z,0.49
2017-01-10T13:21:08.212Z,0.51
2017-01-10T13:22:18.951Z,0.47
2017-01-10T13:23:29.675Z,0.37
2017-01-10T13:24:40.403Z,0.42
2017-01-10T13:25:51.150Z,0.49
2017-01-10T13:27:01.888Z,0.42
2017-01-10T13:28:12.635Z,0.37
2017-01-10T13:29:23.360Z,0.42
2017-01-10T13:30:34.082Z,0.42
2017-01-10T13:31:44.801Z,0.42
2017-01-10T13:32:55.902Z,0.49
2017-01-10T13:34:06.622Z,0.4
2017-01-10T13:35:17.357Z,0.42
2017-01-10T13:36:28.113Z,0.48
2017-01-10T13:37:38.839Z,0.45
2017-01-10T13:38:49.581Z,0.42
2017-01-10T13:40:00.327Z,0.39
2017-01-10T13:41:11.073Z,0.39
2017-01-10T13:42:21.861Z,0.42
2017-01-10T13:43:32.580Z,0.44
2017-01-10T13:44:43.325Z,0.42
2017-01-10T13:45:54.058Z,0.39
2017-01-10T13:47:04.785Z,0.44
2017-01-10T13:48:15.496Z,0.42
2017-01-10T13:49:26.235Z,0.39
2017-01-10T13:50:36.934Z,0.44
2017-01-10T13:51:47.680Z,0.36
2017-01-10T13:52:58.398Z,0.3
2017-01-10T13:54:09.123Z,0.39
2017-01-10T13:55:19.843Z,0.33
2017-01-10T13:56:30.589Z,0.36
2017-01-10T13:57:41.293Z,0.33
2017-01-10T13:58:51.984Z,0.34
2017-01-10T14:00:02.754Z,0.36
2017-01-10T14:01:13.498Z,0.27
2017-01-10T14:02:24.218Z,0.36
2017-01-10T14:03:34.961Z,0.33
2017-01-10T14:04:45.712Z,0.31
2017-01-10T14:05:56.453Z,0.31
2017-01-10T14:07:07.186Z,0.24
2017-01-10T14:08:17.927Z,0.31
2017-01-10T14:09:28.654Z,0.29
2017-01-10T14:10:39.390Z,0.34
2017-01-10T14:11:50.122Z,0.27
2017-01-10T14:13:00.866Z,0.33
2017-01-10T14:14:11.599Z,0.29
2017-01-10T14:15:22.323Z,0.26
2017-01-10T14:16:33.049Z,0.24
2017-01-10T14:17:43.778Z,0.24
2017-01-10T14:18:54.537Z,0.29
2017-01-10T14:20:05.265Z,0.2
2017-01-10T14:21:16.004Z,0.2
2017-01-10T14:22:26.745Z,0.15
2017-01-10T14:23:37.492Z,0.08
2017-01-10T14:24:48.596Z,0.19
2017-01-10T14:25:59.348Z,0.02
2017-01-10T14:27:10.080Z,0.05
2017-01-10T14:28:20.826Z,-0.05
2017-01-10T14:29:31.559Z,0.02
2017-01-10T14:30:42.293Z,-0.03
2017-01-10T14:31:53.026Z,0.02
2017-01-10T14:33:03.763Z,-0.09
2017-01-10T14:34:14.460Z,-0.03
2017-01-10T14:35:25.204Z,-0.02
2017-01-10T14:36:35.902Z,-0.1
2017-01-10T14:37:46.630Z,-0.06
2017-01-10T14:38:57.364Z,-0.15
2017-01-10T14:40:08.114Z,-0.15
2017-01-10T14:41:18.843Z,-0.2
2017-01-10T14:42:29.578Z,-0.13
2017-01-10T14:43:40.324Z,-0.13
2017-01-10T14:44:51.049Z,-0.26
2017-01-10T14:46:01.793Z,-0.27
2017-01-10T14:47:12.562Z,-0.24
2017-01-10T14:48:23.283Z,-0.36
2017-01-10T14:49:34.011Z,-0.31
2017-01-10T14:50:44.741Z,-0.26
2017-01-10T14:51:55.480Z,-0.35
2017-01-10T14:53:06.215Z,-0.35
2017-01-10T14:54:16.939Z,-0.44
2017-01-10T14:55:27.685Z,-0.44
2017-01-10T14:56:38.410Z,-0.56
2017-01-10T14:57:49.134Z,-0.48
2017-01-10T14:58:59.856Z,-0.51
2017-01-10T15:00:10.573Z,-0.59
2017-01-10T15:01:21.298Z,-0.6
2017-01-10T15:02:32.016Z,-0.57
2017-01-10T15:03:42.763Z,-0.72
2017-01-10T15:04:53.530Z,-0.69
2017-01-10T15:06:04.260Z,-0.74
2017-01-10T15:07:14.950Z,-0.74
2017-01-10T15:08:25.696Z,-0.8
2017-01-10T15:09:36.442Z,-0.84
2017-01-10T15:10:47.159Z,-0.85
2017-01-10T15:11:57.888Z,-0.8
2017-01-10T15:13:08.611Z,-0.93
2017-01-10T15:14:19.335Z,-0.89
2017-01-10T15:15:30.044Z,-0.96
2017-01-10T15:16:40.775Z,-0.96
2017-01-10T15:17:51.475Z,-0.97
2017-01-10T15:19:02.182Z,-1.01
2017-01-10T15:20:12.911Z,-1.01
2017-01-10T15:21:23.653Z,-1.12